sensor_id;sensor_type;location;lat;lon;timestamp;P1;durP1;ratioP1;P2;durP2;ratioP2
64795;SDS011;51229;51.980;6.722;2023-03-01T00:01:00;10.93;;;6.80;;
64795;SDS011;51229;51.980;6.722;2023-03-01T00:03:27;10.80;;;6.50;;
64795;SDS011;51229;51.980;6.722;2023-03-01T00:05:53;10.48;;;6.40;;
64795;SDS011;51229;51.980;6.722;2023-03-01T00:08:19;11.73;;;6.90;;
64795;SDS011;51229;51.980;6.722;2023-03-01T00:10:45;10.02;;;6.25;;
64795;SDS011;51229;51.980;6.722;2023-03-01T00:13:10;10.98;;;6.50;;
64795;SDS011;51229;51.980;6.722;2023-03-01T00:15:39;10.25;;;5.97;;
64795;SDS011;51229;51.980;6.722;2023-03-01T00:18:08;9.98;;;6.32;;
64795;SDS011;51229;51.980;6.722;2023-03-01T00:20:34;10.60;;;6.80;;
64795;SDS011;51229;51.980;6.722;2023-03-01T00:23:00;11.25;;;6.50;;
64795;SDS011;51229;51.980;6.722;2023-03-01T00:25:26;10.40;;;6.25;;
64795;SDS011;51229;51.980;6.722;2023-03-01T00:27:51;11.43;;;6.38;;
64795;SDS011;51229;51.980;6.722;2023-03-01T00:30:18;12.18;;;6.68;;
64795;SDS011;51229;51.980;6.722;2023-03-01T00:32:45;14.65;;;6.32;;
64795;SDS011;51229;51.980;6.722;2023-03-01T00:35:10;10.10;;;6.40;;
64795;SDS011;51229;51.980;6.722;2023-03-01T00:37:36;11.02;;;6.35;;
64795;SDS011;51229;51.980;6.722;2023-03-01T00:40:01;10.48;;;6.38;;
64795;SDS011;51229;51.980;6.722;2023-03-01T00:42:31;10.70;;;6.32;;
64795;SDS011;51229;51.980;6.722;2023-03-01T00:44:56;11.20;;;6.00;;
64795;SDS011;51229;51.980;6.722;2023-03-01T00:47:22;10.55;;;6.38;;
64795;SDS011;51229;51.980;6.722;2023-03-01T00:49:48;13.20;;;7.28;;
64795;SDS011;51229;51.980;6.722;2023-03-01T00:52:14;13.48;;;6.82;;
64795;SDS011;51229;51.980;6.722;2023-03-01T00:54:40;12.13;;;6.82;;
64795;SDS011;51229;51.980;6.722;2023-03-01T00:57:07;10.77;;;6.38;;
64795;SDS011;51229;51.980;6.722;2023-03-01T00:59:32;11.00;;;6.07;;
64795;SDS011;51229;51.980;6.722;2023-03-01T01:01:58;11.20;;;6.55;;
64795;SDS011;51229;51.980;6.722;2023-03-01T01:04:24;13.05;;;6.50;;
64795;SDS011;51229;51.980;6.722;2023-03-01T01:06:49;8.82;;;5.40;;
64795;SDS011;51229;51.980;6.722;2023-03-01T01:09:16;13.38;;;6.32;;
64795;SDS011;51229;51.980;6.722;2023-03-01T01:11:43;9.45;;;6.07;;
64795;SDS011;51229;51.980;6.722;2023-03-01T01:14:13;12.48;;;7.10;;
64795;SDS011;51229;51.980;6.722;2023-03-01T01:16:39;10.88;;;6.30;;
64795;SDS011;51229;51.980;6.722;2023-03-01T01:19:05;14.10;;;6.88;;
64795;SDS011;51229;51.980;6.722;2023-03-01T01:21:31;11.52;;;6.57;;
64795;SDS011;51229;51.980;6.722;2023-03-01T01:23:57;10.32;;;6.55;;
64795;SDS011;51229;51.980;6.722;2023-03-01T01:26:30;10.18;;;6.40;;
64795;SDS011;51229;51.980;6.722;2023-03-01T01:28:58;11.82;;;6.38;;
64795;SDS011;51229;51.980;6.722;2023-03-01T01:31:25;11.60;;;6.10;;
64795;SDS011;51229;51.980;6.722;2023-03-01T01:33:52;11.15;;;6.22;;
64795;SDS011;51229;51.980;6.722;2023-03-01T01:36:18;10.52;;;5.43;;
64795;SDS011;51229;51.980;6.722;2023-03-01T01:38:44;11.55;;;6.00;;
64795;SDS011;51229;51.980;6.722;2023-03-01T01:41:10;10.00;;;5.60;;
64795;SDS011;51229;51.980;6.722;2023-03-01T01:43:38;11.55;;;6.03;;
64795;SDS011;51229;51.980;6.722;2023-03-01T01:46:13;10.85;;;6.20;;
64795;SDS011;51229;51.980;6.722;2023-03-01T01:48:55;11.18;;;6.55;;
64795;SDS011;51229;51.980;6.722;2023-03-01T01:51:31;10.43;;;6.18;;
64795;SDS011;51229;51.980;6.722;2023-03-01T01:54:05;11.00;;;6.35;;
64795;SDS011;51229;51.980;6.722;2023-03-01T01:56:44;11.68;;;6.18;;
64795;SDS011;51229;51.980;6.722;2023-03-01T01:59:16;10.48;;;6.57;;
64795;SDS011;51229;51.980;6.722;2023-03-01T02:01:42;11.90;;;6.43;;
64795;SDS011;51229;51.980;6.722;2023-03-01T02:04:08;10.68;;;5.80;;
64795;SDS011;51229;51.980;6.722;2023-03-01T02:06:36;11.25;;;6.40;;
64795;SDS011;51229;51.980;6.722;2023-03-01T02:09:07;9.32;;;5.53;;
64795;SDS011;51229;51.980;6.722;2023-03-01T02:11:38;11.70;;;6.15;;
64795;SDS011;51229;51.980;6.722;2023-03-01T02:14:05;11.50;;;6.10;;
64795;SDS011;51229;51.980;6.722;2023-03-01T02:16:31;9.23;;;5.72;;
64795;SDS011;51229;51.980;6.722;2023-03-01T02:18:57;11.35;;;6.10;;
64795;SDS011;51229;51.980;6.722;2023-03-01T02:24:21;11.48;;;6.00;;
64795;SDS011;51229;51.980;6.722;2023-03-01T02:27:11;9.82;;;5.90;;
64795;SDS011;51229;51.980;6.722;2023-03-01T02:29:37;9.77;;;5.68;;
64795;SDS011;51229;51.980;6.722;2023-03-01T02:32:03;10.45;;;6.05;;
64795;SDS011;51229;51.980;6.722;2023-03-01T02:34:35;10.57;;;6.00;;
64795;SDS011;51229;51.980;6.722;2023-03-01T02:37:26;14.25;;;6.47;;
64795;SDS011;51229;51.980;6.722;2023-03-01T02:39:57;10.10;;;6.00;;
64795;SDS011;51229;51.980;6.722;2023-03-01T02:42:40;9.45;;;5.82;;
64795;SDS011;51229;51.980;6.722;2023-03-01T02:45:42;10.27;;;6.07;;
64795;SDS011;51229;51.980;6.722;2023-03-01T02:48:16;10.30;;;5.78;;
64795;SDS011;51229;51.980;6.722;2023-03-01T02:56:28;11.57;;;6.10;;
64795;SDS011;51229;51.980;6.722;2023-03-01T02:59:04;11.52;;;6.38;;
64795;SDS011;51229;51.980;6.722;2023-03-01T03:01:31;11.20;;;6.47;;
64795;SDS011;51229;51.980;6.722;2023-03-01T03:04:05;10.77;;;5.95;;
64795;SDS011;51229;51.980;6.722;2023-03-01T03:06:32;13.25;;;5.70;;
64795;SDS011;51229;51.980;6.722;2023-03-01T03:08:58;10.60;;;6.00;;
64795;SDS011;51229;51.980;6.722;2023-03-01T03:11:24;10.13;;;5.93;;
64795;SDS011;51229;51.980;6.722;2023-03-01T03:13:51;11.05;;;5.70;;
64795;SDS011;51229;51.980;6.722;2023-03-01T03:16:17;10.30;;;6.10;;
64795;SDS011;51229;51.980;6.722;2023-03-01T03:18:44;10.43;;;5.95;;
64795;SDS011;51229;51.980;6.722;2023-03-01T03:21:10;12.25;;;6.18;;
64795;SDS011;51229;51.980;6.722;2023-03-01T03:23:37;9.52;;;6.03;;
64795;SDS011;51229;51.980;6.722;2023-03-01T03:26:03;9.15;;;5.53;;
64795;SDS011;51229;51.980;6.722;2023-03-01T03:28:33;9.60;;;5.60;;
64795;SDS011;51229;51.980;6.722;2023-03-01T03:31:00;11.25;;;5.97;;
64795;SDS011;51229;51.980;6.722;2023-03-01T03:33:31;12.77;;;5.47;;
64795;SDS011;51229;51.980;6.722;2023-03-01T03:35:57;11.52;;;6.55;;
64795;SDS011;51229;51.980;6.722;2023-03-01T03:38:23;10.30;;;6.00;;
64795;SDS011;51229;51.980;6.722;2023-03-01T03:40:59;9.75;;;5.88;;
64795;SDS011;51229;51.980;6.722;2023-03-01T03:43:28;10.27;;;5.90;;
64795;SDS011;51229;51.980;6.722;2023-03-01T03:45:54;10.57;;;5.90;;
64795;SDS011;51229;51.980;6.722;2023-03-01T03:48:22;12.45;;;6.60;;
64795;SDS011;51229;51.980;6.722;2023-03-01T03:50:50;11.52;;;6.00;;
64795;SDS011;51229;51.980;6.722;2023-03-01T03:53:18;9.02;;;6.00;;
64795;SDS011;51229;51.980;6.722;2023-03-01T03:55:44;11.43;;;5.85;;
64795;SDS011;51229;51.980;6.722;2023-03-01T03:58:10;11.27;;;5.80;;
64795;SDS011;51229;51.980;6.722;2023-03-01T04:00:40;10.70;;;6.10;;
64795;SDS011;51229;51.980;6.722;2023-03-01T04:03:07;9.30;;;5.80;;
64795;SDS011;51229;51.980;6.722;2023-03-01T04:05:34;10.75;;;6.20;;
64795;SDS011;51229;51.980;6.722;2023-03-01T04:08:00;12.13;;;6.03;;
64795;SDS011;51229;51.980;6.722;2023-03-01T04:10:39;10.35;;;5.93;;
64795;SDS011;51229;51.980;6.722;2023-03-01T04:13:10;10.05;;;5.57;;
64795;SDS011;51229;51.980;6.722;2023-03-01T04:15:38;11.88;;;5.75;;
64795;SDS011;51229;51.980;6.722;2023-03-01T04:18:05;10.68;;;6.03;;
64795;SDS011;51229;51.980;6.722;2023-03-01T04:20:33;9.45;;;5.80;;
64795;SDS011;51229;51.980;6.722;2023-03-01T04:23:01;10.30;;;6.07;;
64795;SDS011;51229;51.980;6.722;2023-03-01T04:28:26;11.07;;;6.43;;
64795;SDS011;51229;51.980;6.722;2023-03-01T04:30:54;10.32;;;5.80;;
64795;SDS011;51229;51.980;6.722;2023-03-01T04:33:21;11.68;;;6.22;;
64795;SDS011;51229;51.980;6.722;2023-03-01T04:35:47;13.63;;;6.60;;
64795;SDS011;51229;51.980;6.722;2023-03-01T04:38:16;12.43;;;6.15;;
64795;SDS011;51229;51.980;6.722;2023-03-01T04:40:43;10.82;;;6.50;;
64795;SDS011;51229;51.980;6.722;2023-03-01T04:43:09;11.82;;;5.95;;
64795;SDS011;51229;51.980;6.722;2023-03-01T04:45:35;10.65;;;6.20;;
64795;SDS011;51229;51.980;6.722;2023-03-01T04:48:01;9.88;;;6.32;;
64795;SDS011;51229;51.980;6.722;2023-03-01T04:50:28;12.27;;;6.30;;
64795;SDS011;51229;51.980;6.722;2023-03-01T04:52:54;9.20;;;5.72;;
64795;SDS011;51229;51.980;6.722;2023-03-01T04:55:24;11.38;;;6.30;;
64795;SDS011;51229;51.980;6.722;2023-03-01T04:57:51;10.30;;;6.05;;
64795;SDS011;51229;51.980;6.722;2023-03-01T05:00:16;12.10;;;6.28;;
64795;SDS011;51229;51.980;6.722;2023-03-01T05:02:55;12.57;;;6.40;;
64795;SDS011;51229;51.980;6.722;2023-03-01T05:05:40;9.98;;;6.07;;
64795;SDS011;51229;51.980;6.722;2023-03-01T05:08:07;12.82;;;6.85;;
64795;SDS011;51229;51.980;6.722;2023-03-01T05:10:34;12.65;;;5.93;;
64795;SDS011;51229;51.980;6.722;2023-03-01T05:13:00;9.65;;;5.72;;
64795;SDS011;51229;51.980;6.722;2023-03-01T05:15:28;12.10;;;6.43;;
64795;SDS011;51229;51.980;6.722;2023-03-01T05:17:56;9.80;;;5.82;;
64795;SDS011;51229;51.980;6.722;2023-03-01T05:20:24;10.48;;;5.90;;
64795;SDS011;51229;51.980;6.722;2023-03-01T05:22:51;10.18;;;6.40;;
64795;SDS011;51229;51.980;6.722;2023-03-01T05:25:19;9.43;;;5.85;;
64795;SDS011;51229;51.980;6.722;2023-03-01T05:27:46;10.35;;;6.18;;
64795;SDS011;51229;51.980;6.722;2023-03-01T05:30:12;11.43;;;5.97;;
64795;SDS011;51229;51.980;6.722;2023-03-01T05:32:46;11.07;;;6.22;;
64795;SDS011;51229;51.980;6.722;2023-03-01T05:35:13;13.07;;;6.65;;
64795;SDS011;51229;51.980;6.722;2023-03-01T05:37:43;11.93;;;6.70;;
64795;SDS011;51229;51.980;6.722;2023-03-01T05:40:11;11.77;;;6.68;;
64795;SDS011;51229;51.980;6.722;2023-03-01T05:42:43;11.13;;;6.18;;
64795;SDS011;51229;51.980;6.722;2023-03-01T05:45:10;11.07;;;6.28;;
64795;SDS011;51229;51.980;6.722;2023-03-01T05:47:37;11.88;;;6.35;;
64795;SDS011;51229;51.980;6.722;2023-03-01T05:50:12;11.23;;;6.70;;
64795;SDS011;51229;51.980;6.722;2023-03-01T05:52:43;11.45;;;6.50;;
64795;SDS011;51229;51.980;6.722;2023-03-01T05:55:10;12.30;;;7.22;;
64795;SDS011;51229;51.980;6.722;2023-03-01T05:57:36;12.45;;;7.13;;
64795;SDS011;51229;51.980;6.722;2023-03-01T06:00:02;10.68;;;6.70;;
64795;SDS011;51229;51.980;6.722;2023-03-01T06:02:37;10.95;;;6.15;;
64795;SDS011;51229;51.980;6.722;2023-03-01T06:05:04;11.82;;;6.60;;
64795;SDS011;51229;51.980;6.722;2023-03-01T06:07:31;11.88;;;6.35;;
64795;SDS011;51229;51.980;6.722;2023-03-01T06:09:57;11.48;;;6.97;;
64795;SDS011;51229;51.980;6.722;2023-03-01T06:12:22;10.90;;;6.40;;
64795;SDS011;51229;51.980;6.722;2023-03-01T06:14:48;10.40;;;6.30;;
64795;SDS011;51229;51.980;6.722;2023-03-01T06:17:13;11.75;;;6.72;;
64795;SDS011;51229;51.980;6.722;2023-03-01T06:19:39;12.25;;;6.88;;
64795;SDS011;51229;51.980;6.722;2023-03-01T06:22:05;12.82;;;6.93;;
64795;SDS011;51229;51.980;6.722;2023-03-01T06:24:30;12.05;;;6.45;;
64795;SDS011;51229;51.980;6.722;2023-03-01T06:26:56;12.93;;;7.10;;
64795;SDS011;51229;51.980;6.722;2023-03-01T06:29:22;12.15;;;6.78;;
64795;SDS011;51229;51.980;6.722;2023-03-01T06:31:48;11.73;;;6.85;;
64795;SDS011;51229;51.980;6.722;2023-03-01T06:34:14;12.40;;;7.43;;
64795;SDS011;51229;51.980;6.722;2023-03-01T06:36:40;12.55;;;7.13;;
64795;SDS011;51229;51.980;6.722;2023-03-01T06:39:06;12.52;;;6.95;;
64795;SDS011;51229;51.980;6.722;2023-03-01T06:41:32;14.38;;;7.38;;
64795;SDS011;51229;51.980;6.722;2023-03-01T06:43:58;12.90;;;7.82;;
64795;SDS011;51229;51.980;6.722;2023-03-01T06:46:24;12.98;;;7.88;;
64795;SDS011;51229;51.980;6.722;2023-03-01T06:48:50;15.73;;;8.27;;
64795;SDS011;51229;51.980;6.722;2023-03-01T06:51:15;14.27;;;8.02;;
64795;SDS011;51229;51.980;6.722;2023-03-01T06:53:41;11.63;;;6.78;;
64795;SDS011;51229;51.980;6.722;2023-03-01T06:56:07;12.43;;;7.40;;
64795;SDS011;51229;51.980;6.722;2023-03-01T06:58:32;15.68;;;7.45;;
64795;SDS011;51229;51.980;6.722;2023-03-01T07:00:58;15.07;;;7.90;;
64795;SDS011;51229;51.980;6.722;2023-03-01T07:03:24;12.88;;;7.55;;
64795;SDS011;51229;51.980;6.722;2023-03-01T07:05:50;16.65;;;8.30;;
64795;SDS011;51229;51.980;6.722;2023-03-01T07:08:17;13.05;;;7.72;;
64795;SDS011;51229;51.980;6.722;2023-03-01T07:10:43;11.68;;;7.72;;
64795;SDS011;51229;51.980;6.722;2023-03-01T07:13:09;12.15;;;7.10;;
64795;SDS011;51229;51.980;6.722;2023-03-01T07:15:35;13.30;;;7.82;;
64795;SDS011;51229;51.980;6.722;2023-03-01T07:18:01;14.57;;;7.60;;
64795;SDS011;51229;51.980;6.722;2023-03-01T07:20:27;14.02;;;8.35;;
64795;SDS011;51229;51.980;6.722;2023-03-01T07:22:53;15.63;;;7.68;;
64795;SDS011;51229;51.980;6.722;2023-03-01T07:25:19;17.73;;;8.35;;
64795;SDS011;51229;51.980;6.722;2023-03-01T07:27:52;15.82;;;8.45;;
64795;SDS011;51229;51.980;6.722;2023-03-01T07:30:19;15.13;;;7.70;;
64795;SDS011;51229;51.980;6.722;2023-03-01T07:32:45;12.63;;;7.65;;
64795;SDS011;51229;51.980;6.722;2023-03-01T07:35:11;13.82;;;7.70;;
64795;SDS011;51229;51.980;6.722;2023-03-01T07:37:37;11.60;;;7.57;;
64795;SDS011;51229;51.980;6.722;2023-03-01T07:40:03;14.48;;;8.27;;
64795;SDS011;51229;51.980;6.722;2023-03-01T07:42:29;13.98;;;8.05;;
64795;SDS011;51229;51.980;6.722;2023-03-01T07:44:54;12.77;;;7.72;;
64795;SDS011;51229;51.980;6.722;2023-03-01T07:47:20;12.25;;;8.15;;
64795;SDS011;51229;51.980;6.722;2023-03-01T07:49:46;13.38;;;8.07;;
64795;SDS011;51229;51.980;6.722;2023-03-01T07:52:11;13.63;;;8.23;;
64795;SDS011;51229;51.980;6.722;2023-03-01T07:54:37;13.07;;;7.95;;
64795;SDS011;51229;51.980;6.722;2023-03-01T07:57:03;14.18;;;8.05;;
64795;SDS011;51229;51.980;6.722;2023-03-01T07:59:29;15.88;;;8.18;;
64795;SDS011;51229;51.980;6.722;2023-03-01T08:01:55;18.17;;;8.32;;
64795;SDS011;51229;51.980;6.722;2023-03-01T08:04:22;15.15;;;8.85;;
64795;SDS011;51229;51.980;6.722;2023-03-01T08:06:49;14.57;;;8.50;;
64795;SDS011;51229;51.980;6.722;2023-03-01T08:09:16;14.23;;;8.40;;
64795;SDS011;51229;51.980;6.722;2023-03-01T08:11:41;14.63;;;8.18;;
64795;SDS011;51229;51.980;6.722;2023-03-01T08:14:07;18.45;;;8.30;;
64795;SDS011;51229;51.980;6.722;2023-03-01T08:16:33;16.15;;;8.80;;
64795;SDS011;51229;51.980;6.722;2023-03-01T08:19:07;12.38;;;7.78;;
64795;SDS011;51229;51.980;6.722;2023-03-01T08:21:34;13.35;;;8.55;;
64795;SDS011;51229;51.980;6.722;2023-03-01T08:24:03;11.85;;;7.80;;
64795;SDS011;51229;51.980;6.722;2023-03-01T08:26:30;10.77;;;7.57;;
64795;SDS011;51229;51.980;6.722;2023-03-01T08:28:57;14.90;;;8.20;;
64795;SDS011;51229;51.980;6.722;2023-03-01T08:31:28;12.13;;;7.18;;
64795;SDS011;51229;51.980;6.722;2023-03-01T08:33:57;16.88;;;8.43;;
64795;SDS011;51229;51.980;6.722;2023-03-01T08:36:29;12.75;;;7.90;;
64795;SDS011;51229;51.980;6.722;2023-03-01T08:38:57;15.55;;;8.07;;
64795;SDS011;51229;51.980;6.722;2023-03-01T08:41:23;12.05;;;7.43;;
64795;SDS011;51229;51.980;6.722;2023-03-01T08:43:49;14.93;;;8.45;;
64795;SDS011;51229;51.980;6.722;2023-03-01T08:46:15;12.68;;;7.53;;
64795;SDS011;51229;51.980;6.722;2023-03-01T08:48:41;14.35;;;7.82;;
64795;SDS011;51229;51.980;6.722;2023-03-01T08:51:09;13.02;;;7.50;;
64795;SDS011;51229;51.980;6.722;2023-03-01T08:53:36;12.57;;;7.63;;
64795;SDS011;51229;51.980;6.722;2023-03-01T08:56:02;11.27;;;7.68;;
64795;SDS011;51229;51.980;6.722;2023-03-01T08:58:28;14.18;;;7.28;;
64795;SDS011;51229;51.980;6.722;2023-03-01T09:00:54;14.82;;;7.47;;
64795;SDS011;51229;51.980;6.722;2023-03-01T09:03:21;12.45;;;7.20;;
64795;SDS011;51229;51.980;6.722;2023-03-01T09:05:48;12.02;;;6.90;;
64795;SDS011;51229;51.980;6.722;2023-03-01T09:08:15;13.23;;;7.28;;
64795;SDS011;51229;51.980;6.722;2023-03-01T09:10:44;10.15;;;6.88;;
64795;SDS011;51229;51.980;6.722;2023-03-01T09:13:10;12.48;;;7.55;;
64795;SDS011;51229;51.980;6.722;2023-03-01T09:15:37;10.90;;;6.18;;
64795;SDS011;51229;51.980;6.722;2023-03-01T09:18:03;10.93;;;6.05;;
64795;SDS011;51229;51.980;6.722;2023-03-01T09:20:30;9.98;;;5.80;;
64795;SDS011;51229;51.980;6.722;2023-03-01T09:22:56;9.40;;;5.65;;
64795;SDS011;51229;51.980;6.722;2023-03-01T09:25:22;9.13;;;5.40;;
64795;SDS011;51229;51.980;6.722;2023-03-01T09:27:50;9.20;;;5.50;;
64795;SDS011;51229;51.980;6.722;2023-03-01T09:30:17;8.82;;;5.80;;
64795;SDS011;51229;51.980;6.722;2023-03-01T09:32:43;9.80;;;5.78;;
64795;SDS011;51229;51.980;6.722;2023-03-01T09:35:09;8.75;;;5.68;;
64795;SDS011;51229;51.980;6.722;2023-03-01T09:37:38;10.23;;;5.95;;
64795;SDS011;51229;51.980;6.722;2023-03-01T09:40:12;9.50;;;4.60;;
64795;SDS011;51229;51.980;6.722;2023-03-01T09:43:02;9.00;;;5.50;;
64795;SDS011;51229;51.980;6.722;2023-03-01T09:45:38;9.18;;;5.80;;
64795;SDS011;51229;51.980;6.722;2023-03-01T09:48:10;7.63;;;4.95;;
64795;SDS011;51229;51.980;6.722;2023-03-01T09:53:15;9.18;;;5.30;;
64795;SDS011;51229;51.980;6.722;2023-03-01T09:55:57;9.60;;;5.43;;
64795;SDS011;51229;51.980;6.722;2023-03-01T10:01:26;10.27;;;5.57;;
64795;SDS011;51229;51.980;6.722;2023-03-01T10:04:12;11.23;;;6.28;;
64795;SDS011;51229;51.980;6.722;2023-03-01T10:07:03;9.20;;;5.80;;
64795;SDS011;51229;51.980;6.722;2023-03-01T10:09:41;10.07;;;5.80;;
64795;SDS011;51229;51.980;6.722;2023-03-01T10:12:16;9.57;;;5.57;;
64795;SDS011;51229;51.980;6.722;2023-03-01T10:14:51;9.13;;;6.43;;
64795;SDS011;51229;51.980;6.722;2023-03-01T10:17:43;9.50;;;6.15;;
64795;SDS011;51229;51.980;6.722;2023-03-01T10:20:15;10.57;;;6.30;;
64795;SDS011;51229;51.980;6.722;2023-03-01T10:22:44;10.88;;;6.85;;
64795;SDS011;51229;51.980;6.722;2023-03-01T10:25:15;10.07;;;6.45;;
64795;SDS011;51229;51.980;6.722;2023-03-01T10:30:18;10.20;;;6.75;;
64795;SDS011;51229;51.980;6.722;2023-03-01T10:32:45;10.20;;;6.50;;
64795;SDS011;51229;51.980;6.722;2023-03-01T10:38:06;10.82;;;7.63;;
64795;SDS011;51229;51.980;6.722;2023-03-01T10:40:35;11.43;;;6.88;;
64795;SDS011;51229;51.980;6.722;2023-03-01T10:43:11;10.30;;;6.65;;
64795;SDS011;51229;51.980;6.722;2023-03-01T10:45:38;8.88;;;6.45;;
64795;SDS011;51229;51.980;6.722;2023-03-01T10:50:33;9.23;;;6.10;;
64795;SDS011;51229;51.980;6.722;2023-03-01T10:53:03;9.43;;;6.15;;
64795;SDS011;51229;51.980;6.722;2023-03-01T10:58:18;10.45;;;7.20;;
64795;SDS011;51229;51.980;6.722;2023-03-01T11:00:55;11.27;;;6.20;;
64795;SDS011;51229;51.980;6.722;2023-03-01T11:03:24;10.60;;;7.10;;
64795;SDS011;51229;51.980;6.722;2023-03-01T11:05:55;11.15;;;6.88;;
64795;SDS011;51229;51.980;6.722;2023-03-01T11:08:43;12.35;;;7.13;;
64795;SDS011;51229;51.980;6.722;2023-03-01T11:13:46;10.10;;;6.45;;
64795;SDS011;51229;51.980;6.722;2023-03-01T11:16:31;9.18;;;6.22;;
64795;SDS011;51229;51.980;6.722;2023-03-01T11:21:34;13.20;;;7.20;;
64795;SDS011;51229;51.980;6.722;2023-03-01T11:24:05;12.55;;;6.68;;
64795;SDS011;51229;51.980;6.722;2023-03-01T11:26:37;10.98;;;6.97;;
64795;SDS011;51229;51.980;6.722;2023-03-01T11:29:07;10.07;;;6.97;;
64795;SDS011;51229;51.980;6.722;2023-03-01T11:31:43;9.27;;;6.03;;
64795;SDS011;51229;51.980;6.722;2023-03-01T11:34:12;10.90;;;6.32;;
64795;SDS011;51229;51.980;6.722;2023-03-01T11:36:53;11.60;;;6.90;;
64795;SDS011;51229;51.980;6.722;2023-03-01T11:39:26;12.32;;;8.00;;
64795;SDS011;51229;51.980;6.722;2023-03-01T11:42:06;10.40;;;6.65;;
64795;SDS011;51229;51.980;6.722;2023-03-01T11:44:37;10.75;;;7.03;;
64795;SDS011;51229;51.980;6.722;2023-03-01T11:47:10;11.35;;;7.65;;
64795;SDS011;51229;51.980;6.722;2023-03-01T11:50:04;12.23;;;7.50;;
64795;SDS011;51229;51.980;6.722;2023-03-01T12:06:54;10.90;;;6.70;;
64795;SDS011;51229;51.980;6.722;2023-03-01T12:20:40;12.82;;;8.82;;
64795;SDS011;51229;51.980;6.722;2023-03-01T12:32:45;11.27;;;6.50;;
64795;SDS011;51229;51.980;6.722;2023-03-01T12:37:36;11.90;;;7.00;;
64795;SDS011;51229;51.980;6.722;2023-03-01T12:43:02;10.43;;;7.82;;
64795;SDS011;51229;51.980;6.722;2023-03-01T12:51:17;10.07;;;7.15;;
64795;SDS011;51229;51.980;6.722;2023-03-01T12:53:48;9.93;;;6.82;;
64795;SDS011;51229;51.980;6.722;2023-03-01T12:56:21;10.73;;;7.28;;
64795;SDS011;51229;51.980;6.722;2023-03-01T12:59:01;11.48;;;7.78;;
64795;SDS011;51229;51.980;6.722;2023-03-01T13:01:45;10.53;;;6.90;;
64795;SDS011;51229;51.980;6.722;2023-03-01T13:07:28;10.52;;;7.53;;
64795;SDS011;51229;51.980;6.722;2023-03-01T13:18:01;10.65;;;6.40;;
64795;SDS011;51229;51.980;6.722;2023-03-01T13:33:41;11.60;;;6.78;;
64795;SDS011;51229;51.980;6.722;2023-03-01T13:36:45;8.80;;;6.68;;
64795;SDS011;51229;51.980;6.722;2023-03-01T13:41:49;8.75;;;5.95;;
64795;SDS011;51229;51.980;6.722;2023-03-01T13:47:05;11.15;;;6.00;;
64795;SDS011;51229;51.980;6.722;2023-03-01T13:49:42;9.35;;;6.20;;
64795;SDS011;51229;51.980;6.722;2023-03-01T13:55:00;9.20;;;5.93;;
64795;SDS011;51229;51.980;6.722;2023-03-01T13:57:33;8.55;;;5.10;;
64795;SDS011;51229;51.980;6.722;2023-03-01T14:00:01;9.13;;;5.93;;
64795;SDS011;51229;51.980;6.722;2023-03-01T14:02:30;7.47;;;5.60;;
64795;SDS011;51229;51.980;6.722;2023-03-01T14:04:59;8.93;;;5.40;;
64795;SDS011;51229;51.980;6.722;2023-03-01T14:07:26;8.80;;;6.22;;
64795;SDS011;51229;51.980;6.722;2023-03-01T14:10:02;8.25;;;6.45;;
64795;SDS011;51229;51.980;6.722;2023-03-01T14:12:39;7.82;;;5.65;;
64795;SDS011;51229;51.980;6.722;2023-03-01T14:15:19;7.80;;;4.47;;
64795;SDS011;51229;51.980;6.722;2023-03-01T14:17:54;7.80;;;5.78;;
64795;SDS011;51229;51.980;6.722;2023-03-01T14:20:27;8.55;;;5.57;;
64795;SDS011;51229;51.980;6.722;2023-03-01T14:22:55;8.95;;;5.60;;
64795;SDS011;51229;51.980;6.722;2023-03-01T14:25:29;8.50;;;5.65;;
64795;SDS011;51229;51.980;6.722;2023-03-01T14:28:04;8.65;;;5.63;;
64795;SDS011;51229;51.980;6.722;2023-03-01T14:30:43;9.45;;;5.40;;
64795;SDS011;51229;51.980;6.722;2023-03-01T14:33:20;8.75;;;5.00;;
64795;SDS011;51229;51.980;6.722;2023-03-01T14:35:55;8.93;;;4.85;;
64795;SDS011;51229;51.980;6.722;2023-03-01T14:38:33;7.43;;;4.82;;
64795;SDS011;51229;51.980;6.722;2023-03-01T14:41:01;7.53;;;4.65;;
64795;SDS011;51229;51.980;6.722;2023-03-01T14:43:32;7.53;;;3.88;;
64795;SDS011;51229;51.980;6.722;2023-03-01T14:45:58;9.02;;;4.43;;
64795;SDS011;51229;51.980;6.722;2023-03-01T14:48:24;6.80;;;4.53;;
64795;SDS011;51229;51.980;6.722;2023-03-01T14:50:52;7.70;;;4.05;;
64795;SDS011;51229;51.980;6.722;2023-03-01T14:53:19;7.93;;;4.60;;
64795;SDS011;51229;51.980;6.722;2023-03-01T14:55:49;7.43;;;4.55;;
64795;SDS011;51229;51.980;6.722;2023-03-01T14:58:22;6.90;;;4.35;;
64795;SDS011;51229;51.980;6.722;2023-03-01T15:00:53;8.35;;;5.25;;
64795;SDS011;51229;51.980;6.722;2023-03-01T15:05:58;7.97;;;4.70;;
64795;SDS011;51229;51.980;6.722;2023-03-01T15:08:26;8.23;;;4.88;;
64795;SDS011;51229;51.980;6.722;2023-03-01T15:11:05;6.07;;;4.07;;
64795;SDS011;51229;51.980;6.722;2023-03-01T15:13:44;5.95;;;3.67;;
64795;SDS011;51229;51.980;6.722;2023-03-01T15:16:13;5.75;;;3.25;;
64795;SDS011;51229;51.980;6.722;2023-03-01T15:18:45;8.18;;;4.43;;
64795;SDS011;51229;51.980;6.722;2023-03-01T15:21:22;7.68;;;4.80;;
64795;SDS011;51229;51.980;6.722;2023-03-01T15:29:20;6.68;;;4.15;;
64795;SDS011;51229;51.980;6.722;2023-03-01T15:32:01;8.32;;;4.47;;
64795;SDS011;51229;51.980;6.722;2023-03-01T15:34:33;8.07;;;5.10;;
64795;SDS011;51229;51.980;6.722;2023-03-01T15:37:02;6.53;;;4.47;;
64795;SDS011;51229;51.980;6.722;2023-03-01T15:41:56;7.15;;;4.55;;
64795;SDS011;51229;51.980;6.722;2023-03-01T15:44:26;6.53;;;4.10;;
64795;SDS011;51229;51.980;6.722;2023-03-01T15:46:54;8.57;;;4.60;;
64795;SDS011;51229;51.980;6.722;2023-03-01T15:49:39;7.03;;;4.38;;
64795;SDS011;51229;51.980;6.722;2023-03-01T15:52:19;8.20;;;4.40;;
64795;SDS011;51229;51.980;6.722;2023-03-01T15:54:58;7.90;;;4.40;;
64795;SDS011;51229;51.980;6.722;2023-03-01T15:57:26;6.78;;;4.40;;
64795;SDS011;51229;51.980;6.722;2023-03-01T15:59:52;9.65;;;4.30;;
64795;SDS011;51229;51.980;6.722;2023-03-01T16:02:17;6.95;;;4.22;;
64795;SDS011;51229;51.980;6.722;2023-03-01T16:04:46;6.50;;;4.43;;
64795;SDS011;51229;51.980;6.722;2023-03-01T16:07:13;6.85;;;4.40;;
64795;SDS011;51229;51.980;6.722;2023-03-01T16:09:39;7.68;;;4.40;;
64795;SDS011;51229;51.980;6.722;2023-03-01T16:12:05;8.65;;;4.78;;
64795;SDS011;51229;51.980;6.722;2023-03-01T16:14:34;7.13;;;4.57;;
64795;SDS011;51229;51.980;6.722;2023-03-01T16:17:00;8.13;;;4.20;;
64795;SDS011;51229;51.980;6.722;2023-03-01T16:19:26;8.48;;;4.05;;
64795;SDS011;51229;51.980;6.722;2023-03-01T16:21:51;7.30;;;4.13;;
64795;SDS011;51229;51.980;6.722;2023-03-01T16:24:17;6.35;;;4.18;;
64795;SDS011;51229;51.980;6.722;2023-03-01T16:26:43;7.20;;;4.35;;
64795;SDS011;51229;51.980;6.722;2023-03-01T16:29:08;7.85;;;3.90;;
64795;SDS011;51229;51.980;6.722;2023-03-01T16:31:34;6.70;;;4.18;;
64795;SDS011;51229;51.980;6.722;2023-03-01T16:34:00;7.30;;;4.15;;
64795;SDS011;51229;51.980;6.722;2023-03-01T16:36:26;6.53;;;3.65;;
64795;SDS011;51229;51.980;6.722;2023-03-01T16:38:57;6.57;;;4.00;;
64795;SDS011;51229;51.980;6.722;2023-03-01T16:41:24;6.72;;;3.88;;
64795;SDS011;51229;51.980;6.722;2023-03-01T16:43:50;6.05;;;4.03;;
64795;SDS011;51229;51.980;6.722;2023-03-01T16:46:22;7.45;;;4.40;;
64795;SDS011;51229;51.980;6.722;2023-03-01T16:48:50;8.05;;;4.40;;
64795;SDS011;51229;51.980;6.722;2023-03-01T16:51:17;6.65;;;3.75;;
64795;SDS011;51229;51.980;6.722;2023-03-01T16:53:43;7.60;;;4.30;;